Time;durP1;ratioP1;P1;durP2;ratioP2;P2;SDS_P1;SDS_P2;PMS_P1;PMS_P2;Temp;Humidity;BMP_temperature;BMP_pressure;BME280_temperature;BME280_humidity;BME280_pressure;Samples;Min_cycle;Max_cycle;Signal;HPM_P1;HPM_P2
2021/05/19 00:00:21;;;;;;;7.10;5.65;;;;;;;11.39;87.13;99977.30;1617151;84;25703;-75
2021/05/19 00:02:49;;;;;;;6.65;5.55;;;;;;;11.39;87.08;99976.80;1633609;85;25828;-73
2021/05/19 00:05:16;;;;;;;7.10;5.60;;;;;;;11.41;87.08;99978.75;1660562;84;25738;-75
2021/05/19 00:07:43;;;;;;;6.95;5.55;;;;;;;11.42;87.09;99978.20;1668683;85;27537;-74
2021/05/19 00:10:11;;;;;;;7.72;5.87;;;;;;;11.43;87.24;99982.55;1636872;84;25745;-75
2021/05/19 00:12:38;;;;;;;6.10;5.50;;;;;;;11.41;87.18;99980.09;1646861;85;25762;-76
2021/05/19 00:15:07;;;;;;;7.25;6.12;;;;;;;11.40;87.25;99982.45;1667903;84;26351;-75
2021/05/19 00:17:45;;;;;;;7.85;5.47;;;;;;;11.40;87.23;99986.98;1650122;85;26379;-75
2021/05/19 00:20:15;;;;;;;6.90;4.75;;;;;;;11.37;87.28;99979.37;1633470;84;27410;-74
2021/05/19 00:22:42;;;;;;;8.37;5.87;;;;;;;11.34;87.45;99985.13;1646695;85;25726;-76
2021/05/19 00:25:11;;;;;;;6.22;5.30;;;;;;;11.29;87.49;99983.06;1667181;84;25699;-75
2021/05/19 00:27:38;;;;;;;6.33;5.72;;;;;;;11.28;87.58;99980.59;1685655;84;25769;-76
2021/05/19 00:30:07;;;;;;;11.50;4.42;;;;;;;11.26;87.50;99982.16;1609878;85;25703;-75
2021/05/19 00:32:34;;;;;;;5.67;4.40;;;;;;;11.25;87.95;99984.51;1662390;84;27868;-75
2021/05/19 00:35:01;;;;;;;5.55;4.83;;;;;;;11.21;87.78;99978.42;1646835;85;25742;-76
2021/05/19 00:37:28;;;;;;;5.83;4.42;;;;;;;11.20;87.98;99983.48;1665890;84;25682;-77
2021/05/19 00:39:55;;;;;;;5.92;4.47;;;;;;;11.19;87.64;99981.31;1611167;84;26362;-75
2021/05/19 00:42:22;;;;;;;8.10;4.87;;;;;;;11.20;87.70;99984.83;1600004;86;25763;-75
2021/05/19 00:44:49;;;;;;;8.33;4.30;;;;;;;11.19;87.75;99984.00;1669458;84;27454;-75
2021/05/19 00:47:38;;;;;;;5.10;4.10;;;;;;;11.15;87.75;99985.44;1648728;85;25685;-76
2021/05/19 00:50:19;;;;;;;4.78;3.05;;;;;;;11.10;87.57;99982.54;1652215;85;26433;-77
2021/05/19 00:52:46;;;;;;;3.80;3.00;;;;;;;11.03;87.98;99984.41;1643492;85;25749;-74
2021/05/19 00:55:14;;;;;;;4.42;2.92;;;;;;;10.97;88.17;99986.54;1668709;84;25878;-75
2021/05/19 00:57:43;;;;;;;6.20;3.55;;;;;;;10.94;88.14;99984.80;1646973;85;27439;-76
2021/05/19 01:00:15;;;;;;;4.50;3.25;;;;;;;10.93;88.04;99989.86;1670623;85;26422;-75
2021/05/19 01:02:47;;;;;;;5.60;3.55;;;;;;;10.92;88.09;99978.81;1688663;84;25292;-75
2021/05/19 01:05:23;;;;;;;5.45;3.70;;;;;;;10.90;88.13;99984.89;1657881;84;25703;-75
2021/05/19 01:10:41;;;;;;;4.15;3.37;;;;;;;10.92;88.18;99982.83;1642780;85;27947;-74
2021/05/19 01:13:08;;;;;;;5.83;3.55;;;;;;;10.91;88.39;99983.84;1639372;84;26560;-77
2021/05/19 01:15:36;;;;;;;5.60;4.10;;;;;;;10.90;88.36;99983.55;1657010;84;25715;-76
2021/05/19 01:18:06;;;;;;;7.30;4.53;;;;;;;10.88;88.41;99981.09;1637836;84;25802;-76
2021/05/19 01:20:34;;;;;;;5.20;4.25;;;;;;;10.88;88.36;99980.55;1634965;84;25670;-75
2021/05/19 01:23:04;;;;;;;5.95;4.15;;;;;;;10.88;88.43;99979.20;1670360;85;28097;-75
2021/05/19 01:25:33;;;;;;;4.20;3.72;;;;;;;10.88;88.61;99982.94;1690572;84;26426;-76
2021/05/19 01:28:03;;;;;;;4.10;3.70;;;;;;;10.85;88.48;99973.44;1643171;85;25790;-75
2021/05/19 01:30:32;;;;;;;5.00;4.12;;;;;;;10.86;88.61;99977.79;1635085;84;25775;-76
2021/05/19 01:33:00;;;;;;;6.33;3.55;;;;;;;10.88;88.54;99982.94;1675385;85;25724;-75
2021/05/19 01:35:27;;;;;;;6.22;3.70;;;;;;;10.86;88.55;99983.15;1639703;86;27415;-76
2021/05/19 01:37:54;;;;;;;5.20;3.85;;;;;;;10.86;88.54;99981.80;1625028;84;25763;-75
2021/05/19 01:40:23;;;;;;;6.42;3.85;;;;;;;10.85;88.56;99982.82;1646235;84;26054;-76
2021/05/19 01:42:51;;;;;;;5.28;3.92;;;;;;;10.86;88.59;99983.95;1684152;84;26335;-77
2021/05/19 01:45:37;;;;;;;4.85;3.30;;;;;;;10.85;88.58;99978.30;1686780;84;26375;-78
2021/05/19 01:48:12;;;;;;;4.67;3.95;;;;;;;10.84;88.60;99980.65;1603327;85;28015;-75
2021/05/19 01:50:41;;;;;;;5.53;4.30;;;;;;;10.85;88.74;99977.46;1642091;85;26351;-75
2021/05/19 01:53:09;;;;;;;8.73;4.17;;;;;;;10.84;88.72;99976.63;1688584;84;25691;-75
2021/05/19 01:55:36;;;;;;;6.40;4.35;;;;;;;10.83;88.57;99979.02;1689598;84;26774;-75
2021/05/19 01:58:03;;;;;;;6.03;4.05;;;;;;;10.83;88.74;99980.35;1632270;84;25648;-75
2021/05/19 02:00:31;;;;;;;5.28;4.42;;;;;;;10.81;88.64;99984.26;1624733;84;27366;-75
2021/05/19 02:03:02;;;;;;;5.70;4.25;;;;;;;10.80;88.65;99978.06;1686324;84;26379;-75
2021/05/19 02:05:32;;;;;;;4.92;4.33;;;;;;;10.81;88.83;99989.62;1688272;84;25801;-75
2021/05/19 02:08:01;;;;;;;5.50;4.58;;;;;;;10.80;88.75;99987.45;1599643;86;25792;-75
2021/05/19 02:10:30;;;;;;;6.20;4.50;;;;;;;10.77;88.73;99991.05;1598728;86;25660;-74
2021/05/19 02:13:10;;;;;;;4.95;4.17;;;;;;;10.79;88.75;99997.03;1687619;84;27194;-74
2021/05/19 02:15:37;;;;;;;7.33;3.85;;;;;;;10.76;88.71;99995.58;1669961;85;25956;-76
2021/05/19 02:18:05;;;;;;;9.73;4.90;;;;;;;10.76;88.82;99994.75;1658878;84;26438;-75
2021/05/19 02:20:33;;;;;;;5.42;3.92;;;;;;;10.76;88.70;99996.09;1645626;84;25764;-74
2021/05/19 02:23:01;;;;;;;5.75;4.17;;;;;;;10.75;88.88;99989.92;1687308;84;25717;-76
2021/05/19 02:25:28;;;;;;;6.53;3.83;;;;;;;10.74;88.92;99985.58;1673267;85;27588;-75
2021/05/19 02:27:55;;;;;;;6.15;4.00;;;;;;;10.72;88.69;99993.00;1645026;84;25739;-76
2021/05/19 02:30:30;;;;;;;6.97;4.05;;;;;;;10.70;88.82;99991.54;1611311;85;25976;-76
2021/05/19 02:32:54;;;;;;;7.67;4.30;;;;;;;10.71;88.84;99989.99;1682743;84;25832;-74
2021/05/19 02:35:23;;;;;;;6.08;4.53;;;;;;;10.73;88.74;99993.83;1667916;85;25875;-76
2021/05/19 02:37:57;;;;;;;6.00;4.62;;;;;;;10.73;88.73;99997.84;1663475;84;27734;-75
2021/05/19 02:40:27;;;;;;;7.67;4.10;;;;;;;10.74;88.73;99994.13;1609825;85;26637;-74
2021/05/19 02:42:53;;;;;;;9.53;4.37;;;;;;;10.73;88.87;99990.61;1684509;84;25628;-75
2021/05/19 02:45:22;;;;;;;4.15;3.75;;;;;;;10.72;88.66;99994.84;1670216;85;26123;-75
2021/05/19 02:47:49;;;;;;;4.65;4.10;;;;;;;10.72;88.73;99998.36;1622434;85;25754;-76
2021/05/19 02:50:16;;;;;;;5.65;4.58;;;;;;;10.73;88.67;100001.87;1622580;84;28477;-74
2021/05/19 02:52:44;;;;;;;5.80;4.15;;;;;;;10.72;88.70;99993.00;1658136;84;25669;-74
2021/05/19 02:55:12;;;;;;;7.90;4.60;;;;;;;10.73;88.76;99991.95;1672737;83;25707;-75
2021/05/19 02:57:39;;;;;;;7.40;4.15;;;;;;;10.74;88.71;99998.14;1627237;84;25939;-75
2021/05/19 03:00:07;;;;;;;9.15;4.20;;;;;;;10.73;88.66;99997.31;1608334;85;26013;-75
2021/05/19 03:02:34;;;;;;;5.42;4.67;;;;;;;10.72;88.73;99995.67;1684486;84;27413;-75
2021/05/19 03:05:01;;;;;;;8.45;4.87;;;;;;;10.72;88.80;99997.02;1688616;83;25802;-75
2021/05/19 03:07:28;;;;;;;6.58;4.65;;;;;;;10.72;88.70;100001.03;1636499;82;25663;-75
2021/05/19 03:09:55;;;;;;;6.47;4.95;;;;;;;10.74;88.73;99999.48;1623365;85;25861;-75
2021/05/19 03:12:22;;;;;;;5.03;4.55;;;;;;;10.77;88.74;100000.43;1686975;83;25979;-75
2021/05/19 03:14:49;;;;;;;6.12;4.72;;;;;;;10.78;88.69;100001.56;1684618;84;27404;-75
2021/05/19 03:17:16;;;;;;;5.50;3.95;;;;;;;10.78;88.71;100009.59;1625763;84;26593;-74
2021/05/19 03:19:43;;;;;;;6.85;4.62;;;;;;;10.77;88.67;100003.11;1646130;84;25294;-74
2021/05/19 03:22:11;;;;;;;7.67;5.00;;;;;;;10.74;88.63;100003.50;1665215;84;26262;-77
2021/05/19 03:24:38;;;;;;;7.80;5.25;;;;;;;10.73;88.62;100005.88;1673752;83;26415;-76
2021/05/19 03:27:05;;;;;;;7.75;5.17;;;;;;;10.76;88.73;100008.97;1653400;84;27427;-76
2021/05/19 03:29:32;;;;;;;7.12;5.33;;;;;;;10.75;88.67;100003.83;1672241;85;25897;-76
2021/05/19 03:31:59;;;;;;;6.65;5.05;;;;;;;10.76;88.70;100005.46;1659452;84;25706;-74
2021/05/19 03:34:26;;;;;;;9.10;5.15;;;;;;;10.76;88.67;100007.63;1670107;83;25734;-74
2021/05/19 03:36:53;;;;;;;7.67;6.53;;;;;;;10.78;88.88;100008.76;1665314;84;25688;-75
2021/05/19 03:39:21;;;;;;;7.22;5.45;;;;;;;10.79;88.74;100013.11;1638851;85;28066;-75
2021/05/19 03:41:48;;;;;;;8.85;6.30;;;;;;;10.83;88.87;100018.37;1660633;85;25653;-75
2021/05/19 03:44:15;;;;;;;7.28;6.12;;;;;;;10.86;88.83;100020.12;1676032;83;25710;-74
2021/05/19 03:46:42;;;;;;;10.38;8.20;;;;;;;10.92;88.77;100026.54;1644962;85;25847;-74
2021/05/19 03:49:09;;;;;;;11.28;7.97;;;;;;;10.96;88.73;100026.95;1653527;83;26076;-76
2021/05/19 03:51:37;;;;;;;9.63;7.12;;;;;;;11.00;88.69;100031.70;1685174;84;27901;-75
2021/05/19 03:54:05;;;;;;;12.75;6.45;;;;;;;11.02;88.62;100031.48;1668544;84;25620;-76
2021/05/19 03:56:33;;;;;;;8.88;7.10;;;;;;;11.03;88.60;100031.81;1670899;82;26356;-75
2021/05/19 03:59:00;;;;;;;10.88;7.67;;;;;;;11.04;88.60;100029.43;1651567;84;25894;-76
2021/05/19 04:01:27;;;;;;;11.05;7.58;;;;;;;11.06;88.58;100036.75;1668132;84;25811;-75
2021/05/19 04:03:54;;;;;;;9.53;7.40;;;;;;;11.04;88.62;100038.30;1684049;83;27607;-76
2021/05/19 04:06:24;;;;;;;9.35;7.03;;;;;;;11.07;88.70;100039.76;1646926;85;25755;-76
2021/05/19 04:08:52;;;;;;;11.53;7.78;;;;;;;11.07;88.65;100043.78;1645639;84;25672;-76
2021/05/19 04:11:19;;;;;;;10.03;7.55;;;;;;;11.11;88.62;100043.67;1670496;83;25877;-75
2021/05/19 04:13:46;;;;;;;9.88;7.87;;;;;;;11.16;88.76;100046.05;1681011;84;25642;-75
2021/05/19 04:16:13;;;;;;;10.63;8.38;;;;;;;11.17;88.62;100039.67;1659444;83;26784;-75
2021/05/19 04:18:40;;;;;;;10.35;8.13;;;;;;;11.19;88.66;100048.33;1632982;83;26375;-76
2021/05/19 04:21:07;;;;;;;9.65;8.60;;;;;;;11.21;88.67;100044.09;1690609;83;25628;-76
2021/05/19 04:23:35;;;;;;;10.48;7.78;;;;;;;11.24;88.65;100046.38;1672460;84;25816;-75
2021/05/19 04:26:03;;;;;;;9.13;8.20;;;;;;;11.26;88.75;100042.98;1657813;84;25834;-74
2021/05/19 04:28:30;;;;;;;11.70;9.15;;;;;;;11.26;88.67;100047.84;1602342;85;28025;-75
2021/05/19 04:30:57;;;;;;;10.20;8.58;;;;;;;11.27;88.61;100041.42;1663626;84;25853;-75
2021/05/19 04:33:24;;;;;;;11.22;8.40;;;;;;;11.31;88.67;100045.34;1687557;83;25849;-75
2021/05/19 04:35:51;;;;;;;11.12;8.78;;;;;;;11.33;88.67;100047.84;1643955;84;25735;-77
2021/05/19 04:38:19;;;;;;;14.63;9.80;;;;;;;11.30;88.62;100049.08;1639536;84;25793;-75
2021/05/19 04:40:46;;;;;;;12.93;9.68;;;;;;;11.32;88.71;100051.55;1678672;84;28087;-77
2021/05/19 04:43:14;;;;;;;11.70;9.03;;;;;;;11.35;88.82;100051.98;1691073;83;25741;-76
2021/05/19 04:45:41;;;;;;;12.30;9.85;;;;;;;11.37;88.96;100063.33;1680409;84;25833;-75
2021/05/19 04:48:08;;;;;;;13.83;11.05;;;;;;;11.35;88.91;100056.00;1658021;84;25739;-75
2021/05/19 04:50:36;;;;;;;11.63;10.40;;;;;;;11.37;89.00;100061.15;1635127;85;25666;-76
2021/05/19 04:53:04;;;;;;;12.90;10.43;;;;;;;11.39;89.04;100065.28;1660990;84;27535;-74
2021/05/19 04:55:31;;;;;;;13.18;10.90;;;;;;;11.46;89.09;100066.09;1657318;84;25685;-78
2021/05/19 04:57:59;;;;;;;15.80;11.38;;;;;;;11.50;89.04;100065.98;1634592;84;25679;-76
2021/05/19 05:00:26;;;;;;;13.65;10.60;;;;;;;11.53;88.94;100069.61;1648304;84;26485;-75
2021/05/19 05:02:53;;;;;;;15.53;11.53;;;;;;;11.54;89.15;100067.26;1671414;85;25715;-75
2021/05/19 05:05:20;;;;;;;16.27;12.05;;;;;;;11.57;89.12;100072.70;1642523;84;28091;-74
2021/05/19 05:07:47;;;;;;;14.85;11.38;;;;;;;11.58;89.31;100073.02;1624319;85;25883;-74
2021/05/19 05:10:14;;;;;;;15.80;13.28;;;;;;;11.60;89.28;100073.64;1661464;84;26413;-74
2021/05/19 05:12:43;;;;;;;15.90;12.68;;;;;;;11.62;89.35;100084.99;1654249;84;25927;-74
2021/05/19 05:15:11;;;;;;;17.25;13.43;;;;;;;11.64;89.32;100085.61;1660081;84;25646;-74
2021/05/19 05:17:39;;;;;;;17.10;13.05;;;;;;;11.65;89.38;100080.03;1624976;86;27413;-75
2021/05/19 05:20:09;;;;;;;19.25;13.60;;;;;;;11.70;89.45;100084.01;1625090;85;25841;-76
2021/05/19 05:22:37;;;;;;;16.45;13.05;;;;;;;11.71;89.39;100085.64;1668299;85;25703;-76
2021/05/19 05:25:06;;;;;;;20.45;14.58;;;;;;;11.74;89.57;100082.56;1657358;84;26290;-76
2021/05/19 05:27:34;;;;;;;21.20;13.30;;;;;;;11.76;89.48;100088.00;1652099;84;25362;-75
2021/05/19 05:30:01;;;;;;;20.00;14.85;;;;;;;11.78;89.48;100083.28;1639776;85;27384;-75
2021/05/19 05:32:28;;;;;;;20.02;14.58;;;;;;;11.79;89.58;100083.58;1686116;84;26475;-75
2021/05/19 05:34:55;;;;;;;18.90;14.45;;;;;;;11.85;89.70;100096.16;1650220;85;25670;-74
2021/05/19 05:37:23;;;;;;;19.55;15.00;;;;;;;11.90;89.36;100087.50;1628951;84;26262;-74
2021/05/19 05:39:50;;;;;;;20.65;15.98;;;;;;;11.93;89.51;100092.46;1632495;86;25721;-74
2021/05/19 05:42:17;;;;;;;18.40;16.07;;;;;;;11.99;89.84;100096.48;1695977;84;27108;-75
2021/05/19 05:44:44;;;;;;;20.57;16.42;;;;;;;12.04;89.78;100095.32;1668627;84;25803;-73
2021/05/19 05:47:11;;;;;;;20.48;15.32;;;;;;;12.08;89.46;100104.61;1626864;85;25639;-74
2021/05/19 05:49:38;;;;;;;20.00;16.07;;;;;;;12.15;89.38;100105.94;1640212;85;26525;-76
2021/05/19 05:52:05;;;;;;;20.12;16.12;;;;;;;12.18;89.25;100102.85;1683740;84;25703;-74
2021/05/19 05:54:33;;;;;;;21.00;16.62;;;;;;;12.21;89.27;100101.91;1654037;85;27287;-74
2021/05/19 05:57:00;;;;;;;22.85;17.82;;;;;;;12.28;89.58;100110.78;1659597;85;25773;-74
2021/05/19 05:59:27;;;;;;;27.35;18.60;;;;;;;12.35;89.15;100111.61;1629687;85;25707;-76
2021/05/19 06:01:54;;;;;;;28.25;19.92;;;;;;;12.35;88.87;100106.23;1662541;84;25743;-74
2021/05/19 06:04:21;;;;;;;23.30;17.52;;;;;;;12.35;88.60;100111.61;1655237;85;25696;-74
2021/05/19 06:06:48;;;;;;;24.00;17.82;;;;;;;12.41;88.91;100116.64;1615202;84;27481;-75
2021/05/19 06:09:15;;;;;;;24.32;17.98;;;;;;;12.43;88.46;100105.17;1633413;85;26443;-75
2021/05/19 06:11:42;;;;;;;24.52;17.80;;;;;;;12.41;88.11;100113.95;1685703;83;26447;-74
2021/05/19 06:14:10;;;;;;;24.27;20.50;;;;;;;12.36;87.96;100115.92;1658835;84;26517;-74
2021/05/19 06:16:37;;;;;;;22.82;18.02;;;;;;;12.38;88.47;100120.57;1650246;86;26058;-75
2021/05/19 06:19:04;;;;;;;21.15;17.37;;;;;;;12.43;87.96;100117.77;1644697;84;28120;-75
2021/05/19 06:21:31;;;;;;;26.60;20.05;;;;;;;12.41;87.93;100119.33;1687021;84;25322;-76
2021/05/19 06:23:59;;;;;;;21.48;18.35;;;;;;;12.46;88.11;100125.42;1657818;84;25653;-74
2021/05/19 06:26:26;;;;;;;23.27;18.07;;;;;;;12.47;87.93;100123.86;1655972;85;26885;-74
2021/05/19 06:28:53;;;;;;;21.02;17.27;;;;;;;12.47;88.05;100127.09;1657115;84;25615;-76
2021/05/19 06:31:20;;;;;;;21.50;17.73;;;;;;;12.47;87.70;100126.55;1683377;84;28176;-74
2021/05/19 06:33:48;;;;;;;24.15;18.02;;;;;;;12.46;87.50;100128.94;1664957;84;25805;-75
2021/05/19 06:36:15;;;;;;;26.45;18.82;;;;;;;12.51;87.94;100123.73;1628266;84;25744;-74
2021/05/19 06:38:42;;;;;;;21.62;17.60;;;;;;;12.54;87.54;100126.02;1650116;84;25726;-75
2021/05/19 06:41:09;;;;;;;32.63;19.62;;;;;;;12.52;87.28;100123.23;1670431;85;25638;-75
2021/05/19 06:43:36;;;;;;;22.85;17.73;;;;;;;12.52;87.41;100121.38;1683126;84;27420;-74
2021/05/19 06:46:03;;;;;;;21.00;16.75;;;;;;;12.57;87.65;100124.78;1621382;85;25865;-74
2021/05/19 06:48:30;;;;;;;21.75;18.12;;;;;;;12.60;87.61;100127.02;1667267;84;25749;-74
2021/05/19 06:50:57;;;;;;;22.32;17.17;;;;;;;12.63;87.64;100129.30;1681001;84;25908;-76
2021/05/19 06:53:25;;;;;;;22.13;18.07;;;;;;;12.68;87.92;100130.30;1657546;84;25614;-74
2021/05/19 06:55:52;;;;;;;20.65;16.62;;;;;;;12.74;87.90;100130.83;1687864;84;28199;-75
2021/05/19 06:58:20;;;;;;;23.73;17.95;;;;;;;12.80;87.52;100139.89;1640895;84;25596;-75
2021/05/19 07:00:47;;;;;;;22.05;17.05;;;;;;;12.81;87.66;100138.87;1609983;85;25640;-74
2021/05/19 07:03:14;;;;;;;22.93;16.67;;;;;;;12.86;87.60;100140.38;1683070;84;25632;-74
2021/05/19 07:05:41;;;;;;;19.45;15.30;;;;;;;12.90;87.83;100131.69;1679637;83;25803;-75
2021/05/19 07:08:09;;;;;;;21.10;15.08;;;;;;;12.90;86.29;100134.38;1661420;84;27976;-75
2021/05/19 07:10:36;;;;;;;21.52;14.95;;;;;;;12.85;86.11;100129.34;1611183;85;25819;-75
2021/05/19 07:13:03;;;;;;;15.95;14.20;;;;;;;12.79;85.96;100128.31;1680623;84;26069;-76
2021/05/19 07:15:35;;;;;;;19.73;15.03;;;;;;;12.76;86.27;100131.44;1679694;83;25822;-76
2021/05/19 07:18:11;;;;;;;17.55;14.73;;;;;;;12.75;86.22;100128.94;1659625;83;26629;-76
2021/05/19 07:20:38;;;;;;;17.82;15.32;;;;;;;12.72;86.52;100131.56;1645989;84;27427;-76
2021/05/19 07:23:05;;;;;;;19.37;14.60;;;;;;;12.70;86.29;100134.95;1667946;85;25787;-75
2021/05/19 07:25:33;;;;;;;21.05;14.38;;;;;;;12.70;86.39;100130.11;1669741;85;25334;-75
2021/05/19 07:28:01;;;;;;;20.70;14.87;;;;;;;12.68;86.59;100135.67;1622974;84;25759;-75
2021/05/19 07:30:29;;;;;;;19.40;14.78;;;;;;;12.74;86.77;100134.86;1590347;85;25953;-75
2021/05/19 07:32:56;;;;;;;21.50;14.70;;;;;;;12.77;86.38;100130.38;1663723;85;28096;-76
2021/05/19 07:35:23;;;;;;;22.35;15.23;;;;;;;12.81;85.45;100140.21;1682292;84;25752;-76
2021/05/19 07:37:50;;;;;;;16.65;13.98;;;;;;;12.82;85.96;100139.16;1638633;83;25728;-75
2021/05/19 07:40:17;;;;;;;20.10;14.40;;;;;;;12.87;86.05;100136.67;1648185;85;25669;-75
2021/05/19 07:42:44;;;;;;;15.08;13.43;;;;;;;12.94;86.11;100144.17;1661893;85;26416;-75
2021/05/19 07:45:11;;;;;;;18.12;13.88;;;;;;;12.98;86.28;100138.70;1674512;84;27520;-76
2021/05/19 07:47:38;;;;;;;20.48;14.68;;;;;;;13.02;85.90;100137.23;1653786;84;25752;-77
2021/05/19 07:50:07;;;;;;;18.48;13.93;;;;;;;13.03;85.32;100139.70;1618676;84;25691;-76
2021/05/19 07:52:34;;;;;;;21.15;15.43;;;;;;;13.02;85.77;100143.41;1675761;84;26706;-76
2021/05/19 07:55:05;;;;;;;19.40;15.10;;;;;;;13.07;86.26;100146.33;1679010;84;25771;-75
2021/05/19 07:57:47;;;;;;;;;;;;;;;13.18;86.45;100150.72;1646842;84;28104;-76
2021/05/19 08:00:16;;;;;;;20.52;13.03;;;;;;;13.23;85.20;100145.02;1652918;84;25336;-76
2021/05/19 08:02:42;;;;;;;16.82;11.38;;;;;;;13.25;84.87;100151.52;1678598;84;25889;-75
2021/05/19 08:05:11;;;;;;;15.18;11.43;;;;;;;13.27;84.20;100148.92;1633614;84;25810;-77
2021/05/19 08:07:38;;;;;;;16.40;11.08;;;;;;;13.26;83.33;100146.45;1666196;84;25650;-75
2021/05/19 08:10:06;;;;;;;16.00;11.20;;;;;;;13.31;84.30;100147.97;1612135;84;27433;-76
2021/05/19 08:12:33;;;;;;;14.00;9.50;;;;;;;13.36;84.07;100149.50;1662112;84;25715;-75
2021/05/19 08:15:00;;;;;;;13.48;10.30;;;;;;;13.48;84.26;100148.59;1649534;83;25666;-76
2021/05/19 08:17:27;;;;;;;17.02;10.78;;;;;;;13.55;83.21;100144.01;1663855;83;25755;-75
2021/05/19 08:19:54;;;;;;;17.27;11.15;;;;;;;13.59;83.20;100148.42;1651523;84;25820;-76
2021/05/19 08:22:21;;;;;;;15.00;9.93;;;;;;;13.67;84.17;100151.68;1641265;85;27510;-75
2021/05/19 08:24:48;;;;;;;13.55;9.85;;;;;;;13.70;81.93;100154.46;1628392;85;25769;-74
2021/05/19 08:27:16;;;;;;;10.25;7.75;;;;;;;13.70;82.30;100159.84;1675452;84;25715;-75
2021/05/19 08:29:43;;;;;;;13.13;8.13;;;;;;;13.66;80.74;100162.16;1662171;83;25904;-74
2021/05/19 08:32:10;;;;;;;10.88;8.30;;;;;;;13.60;80.65;100163.00;1684704;84;26769;-75
2021/05/19 08:34:37;;;;;;;13.15;7.87;;;;;;;13.59;81.28;100161.36;1615333;83;27491;-76
2021/05/19 08:37:04;;;;;;;11.05;7.55;;;;;;;13.60;80.76;100160.30;1642351;84;25712;-76
2021/05/19 08:39:31;;;;;;;10.82;6.60;;;;;;;13.60;80.15;100171.07;1648141;85;25714;-75
2021/05/19 08:41:59;;;;;;;8.70;5.53;;;;;;;13.57;79.66;100166.66;1678926;82;25790;-76
2021/05/19 08:44:26;;;;;;;11.93;6.22;;;;;;;13.58;79.01;100167.77;1669265;85;25714;-76
2021/05/19 08:46:58;;;;;;;8.43;5.08;;;;;;;13.56;78.91;100173.89;1651727;83;27660;-76
2021/05/19 08:49:27;;;;;;;8.90;4.95;;;;;;;13.56;78.70;100170.37;1629042;84;25761;-76
2021/05/19 08:51:55;;;;;;;8.98;5.42;;;;;;;13.54;78.08;100169.77;1652375;85;26492;-76
2021/05/19 08:54:23;;;;;;;7.28;5.45;;;;;;;13.54;78.96;100169.25;1631277;83;25932;-75
2021/05/19 08:56:52;;;;;;;10.63;4.50;;;;;;;13.57;77.99;100168.83;1649220;84;25651;-75
2021/05/19 08:59:20;;;;;;;7.08;4.65;;;;;;;13.51;76.69;100173.73;1668779;83;27408;-75
2021/05/19 09:01:49;;;;;;;4.17;3.77;;;;;;;13.47;76.38;100167.66;1690957;82;25854;-75
2021/05/19 09:04:19;;;;;;;8.30;4.17;;;;;;;;;;1654222;83;25966;-75
2021/05/19 09:07:00;;;;;;;6.47;4.15;;;;;;;13.55;77.83;100174.95;1632940;84;25787;-75
2021/05/19 09:09:31;;;;;;;10.00;5.22;;;;;;;13.65;77.07;100169.91;1681668;82;25778;-78
2021/05/19 09:12:12;;;;;;;6.33;4.25;;;;;;;13.75;77.84;100172.14;1678546;84;27468;-75
2021/05/19 09:14:56;;;;;;;7.83;4.72;;;;;;;13.83;77.50;100174.56;1646695;84;34915;-76
2021/05/19 09:17:33;;;;;;;7.47;4.95;;;;;;;13.94;77.83;100169.28;1642192;85;25760;-75
2021/05/19 09:20:14;;;;;;;7.42;4.60;;;;;;;14.01;77.61;100166.54;1687038;82;26386;-76
2021/05/19 09:22:45;;;;;;;7.92;5.42;;;;;;;14.10;77.14;100171.12;1685605;83;33172;-73
2021/05/19 09:25:26;;;;;;;7.58;5.15;;;;;;;14.15;77.22;100173.48;1651677;83;27402;-76
2021/05/19 09:28:00;;;;;;;9.58;4.70;;;;;;;14.21;77.14;100171.77;1663681;83;26041;-77
2021/05/19 09:30:40;;;;;;;8.70;5.03;;;;;;;14.31;77.30;100176.16;1689680;83;25683;-75
2021/05/19 09:33:21;;;;;;;6.12;4.60;;;;;;;14.41;75.13;100175.15;1674394;84;25862;-74
2021/05/19 09:36:09;;;;;;;6.08;4.62;;;;;;;14.43;74.65;100181.97;1683336;82;26327;-76
2021/05/19 09:38:36;;;;;;;4.83;4.33;;;;;;;14.50;75.34;100179.19;1681839;83;27270;-75
2021/05/19 09:41:28;;;;;;;6.53;4.47;;;;;;;14.59;75.11;100181.39;1676528;83;25647;-77
2021/05/19 09:43:58;;;;;;;4.83;4.40;;;;;;;14.66;73.78;100176.76;1681357;83;25699;-74
2021/05/19 09:49:24;;;;;;;5.40;3.67;;;;;;;14.74;74.40;100178.33;1649453;83;26270;-74
2021/05/19 09:51:53;;;;;;;6.85;4.12;;;;;;;14.75;71.91;100174.59;1689509;82;28187;-75
2021/05/19 09:54:38;;;;;;;7.83;3.85;;;;;;;14.75;72.45;100184.55;1683507;82;26342;-76
2021/05/19 09:57:07;;;;;;;4.95;3.98;;;;;;;14.79;72.41;100178.48;1679558;83;25686;-77
2021/05/19 09:59:35;;;;;;;8.65;3.55;;;;;;;14.82;72.38;100178.57;1629849;83;26878;-76
2021/05/19 10:02:03;;;;;;;5.45;3.22;;;;;;;14.88;71.60;100180.36;1683350;83;25679;-75
2021/05/19 10:04:35;;;;;;;6.62;3.30;;;;;;;14.95;71.53;100180.57;1690031;83;27506;-75
2021/05/19 10:07:00;;;;;;;7.55;3.72;;;;;;;14.97;70.94;100180.38;1657151;83;25658;-76
2021/05/19 10:09:28;;;;;;;5.22;3.50;;;;;;;15.04;71.22;100183.27;1631818;83;26322;-75
2021/05/19 10:11:58;;;;;;;5.37;3.15;;;;;;;15.10;69.70;100174.79;1679400;83;26588;-75
2021/05/19 10:14:26;;;;;;;5.08;3.22;;;;;;;15.12;68.27;100179.47;1682705;83;25633;-76
2021/05/19 10:17:11;;;;;;;5.40;3.80;;;;;;;15.11;67.90;100178.63;1653136;83;27562;-75
2021/05/19 10:19:58;;;;;;;4.65;3.52;;;;;;;15.11;68.19;100181.33;1664460;84;25905;-77
2021/05/19 10:22:28;;;;;;;3.45;3.02;;;;;;;15.15;67.81;100183.04;1664162;83;25624;-76
2021/05/19 10:25:02;;;;;;;6.47;3.95;;;;;;;15.22;68.17;100179.23;1676685;83;26491;-75
2021/05/19 10:27:29;;;;;;;4.50;4.05;;;;;;;15.31;68.78;100184.59;1670568;82;25711;-75
2021/05/19 10:29:58;;;;;;;5.00;3.75;;;;;;;15.28;66.87;100182.36;1649177;83;27514;-75
2021/05/19 10:32:32;;;;;;;7.10;3.62;;;;;;;15.26;67.00;100180.94;1652151;84;25688;-74
2021/05/19 10:35:10;;;;;;;6.95;3.02;;;;;;;15.33;68.45;100178.98;1684732;82;25239;-76
2021/05/19 10:37:46;;;;;;;8.70;3.95;;;;;;;15.37;66.41;100174.25;1678166;83;26005;-76
2021/05/19 10:40:20;;;;;;;4.25;3.27;;;;;;;15.38;67.01;100176.41;1652745;83;25754;-76
2021/05/19 10:42:58;;;;;;;2.80;2.60;;;;;;;15.46;66.44;100180.19;1664977;84;27513;-76
2021/05/19 10:45:25;;;;;;;4.33;2.67;;;;;;;15.54;66.24;100170.94;1690074;83;25679;-75
2021/05/19 10:47:53;;;;;;;3.42;2.67;;;;;;;15.65;67.18;100171.51;1663809;83;26386;-76
2021/05/19 10:50:37;;;;;;;3.90;2.60;;;;;;;15.77;66.14;100171.01;1653414;85;25891;-77
2021/05/19 11:01:14;;;;;;;2.95;2.40;;;;;;;15.97;63.27;100183.70;1645178;83;26479;-76
2021/05/19 11:03:55;;;;;;;4.50;2.55;;;;;;;16.03;61.76;100179.54;1635437;83;25771;-76
2021/05/19 11:06:21;;;;;;;;;;;;;;;16.11;62.80;100179.20;1668660;84;26402;-75
2021/05/19 11:08:48;;;;;;;5.30;2.35;;;;;;;16.23;61.53;100183.25;1642514;84;27795;-76
2021/05/19 11:11:22;;;;;;;2.98;2.65;;;;;;;16.28;58.75;100183.91;1662908;83;25829;-76
2021/05/19 11:14:26;;;;;;;3.27;2.10;;;;;;;16.36;61.15;100180.88;1695310;83;26156;-76
2021/05/19 11:16:59;;;;;;;7.25;2.58;;;;;;;16.50;58.75;100175.55;1685521;84;25988;-76
2021/05/19 11:19:29;;;;;;;2.70;2.37;;;;;;;16.44;55.99;100179.17;1625264;83;26150;-76
2021/05/19 11:22:07;;;;;;;2.35;2.05;;;;;;;16.39;59.25;100173.63;1631992;84;28043;-75
2021/05/19 11:24:59;;;;;;;3.70;1.92;;;;;;;16.50;59.47;100176.37;1629668;85;26473;-75
2021/05/19 11:27:30;;;;;;;2.98;2.12;;;;;;;16.51;59.31;100169.90;1673787;84;25631;-76
2021/05/19 11:29:59;;;;;;;1.77;1.47;;;;;;;16.53;58.74;100165.63;1652967;83;25735;-77
2021/05/19 11:32:28;;;;;;;2.30;1.40;;;;;;;16.64;57.62;100160.72;1686681;83;26057;-75
2021/05/19 11:35:17;;;;;;;2.65;1.82;;;;;;;16.71;55.20;100151.96;1669210;83;27660;-76
2021/05/19 11:38:06;;;;;;;1.80;1.45;;;;;;;16.80;56.59;100159.48;1688254;83;26391;-76
2021/05/19 11:40:48;;;;;;;3.05;1.35;;;;;;;16.89;54.88;100156.68;1662043;83;25866;-76
2021/05/19 11:43:17;;;;;;;1.67;1.30;;;;;;;16.87;55.18;100163.42;1668837;83;25871;-75
2021/05/19 11:45:52;;;;;;;1.85;1.40;;;;;;;16.90;55.30;100162.40;1693840;83;25730;-75